Crowheart, Wyoming
Current Conditions -  °F | °C
As of 4:15 PM on Tuesday 25 Nov 2014 (Local Time) from KDUB Reporting Station
Light Snow Light Snow  
Wind Chill: 20°   Ceiling: 1300
Heat Index: 32°   Visibility: 1.5mi
Dew Point: 30°   Wind: 18mph
Humidity: 93%   Direction: 330°NNW
Pressure: 29.94"   Gusts: 25mph
Location:  43.31°N, 109.2°W
Report Text: KDUB 252315Z AUTO 33016G22KT 1 1/2SM -SN SCT008 OVC013 00/M01 A2994 RMK AO2
Loading
Personal Weather Stations






























Interactive Weather Map New forecast layout! Learn more

10-Day Weather Forecast

Advertisements
Track Severe Weather on mobile